Adriatic Sea — WDB5553 — position and weather

sailwx.info

Track history (hours):
 
Tides and Currents Weather Stations Pressure Air Temp Water Temp Dewpoint Dewpoint Depression Visibility Wind Speed Wind Dir Waves Ship Positions

Adriatic Sea

More information available from US FCC via Universal Licensing System and Coast Guard Vessel Documentation Center.

Last reported at 2014-Sep-29 11:19 UTC. Time now 2014-Sep-30 12:04 UTC.
Position N 46°15' W 123°27'.

Length 42 m.

Type: Tug. MMSI: 366910890.

Date/timePositionNaut miles runAvg speedWind from/ knotsBaromVisibWave heightAir tempDewpointWater temp
2014-Sep-29 11:19N 46°15' W 123°27'6 8.4
2014-Sep-29 10:34N 46°15' W 123°36'9 9.2
2014-Sep-29 09:33N 46°12' W 123°49'8 8.1
2014-Sep-29 08:33N 46°14' W 123°60'6 6.4
2014-Sep-29 07:33N 46°13' W 124°09'9 6.0
2014-Sep-29 06:03N 46°08' W 124°20'3 6.3
2014-Sep-29 05:33N 46°11' W 124°20'121 7.1
2014-Sep-28 12:32N 48°08' W 125°07'9 9.4
2014-Sep-28 11:32N 48°17' W 125°01'9 8.3
2014-Sep-28 10:27N 48°25' W 124°56'8 9.4
2014-Sep-28 09:33N 48°26' W 124°43'9 9.5
2014-Sep-28 08:33N 48°22' W 124°30'1110.4
2014-Sep-28 07:32N 48°18' W 124°16'1010.7
2014-Sep-28 06:33N 48°13' W 124°02'1110.9
2014-Sep-28 05:32N 48°12' W 123°45'1111.1
2014-Sep-28 04:31N 48°11' W 123°28'410.5
2014-Sep-28 04:05N 48°11' W 123°21'610.9
2014-Sep-28 03:32N 48°12' W 123°13'10 9.5
2014-Sep-28 02:32N 48°12' W 122°58'10 9.4
2014-Sep-28 01:29N 48°10' W 122°44'5 7.6
2014-Sep-28 00:47N 48°06' W 122°39'2 9.5
2014-Sep-28 00:34N 48°04' W 122°38'0 7.9
2014-Sep-28 00:32N 48°04' W 122°38'8 8.2
2014-Sep-27 23:34N 47°57' W 122°32'0 7.1
2014-Sep-27 23:32N 47°57' W 122°32'9 9.3
2014-Sep-27 22:33N 47°48' W 122°27'0 9.0
2014-Sep-27 22:32N 47°48' W 122°27'8 8.5
2014-Sep-27 21:33N 47°40' W 122°24'0 4.7
2014-Sep-27 21:32N 47°40' W 122°24'0 0.3
2014-Sep-27 20:34N 47°40' W 122°23'0 0.0
2014-Sep-27 20:31N 47°40' W 122°23'0 0.0
2014-Sep-27 19:34N 47°40' W 122°23'0 0.2
2014-Sep-27 19:31N 47°40' W 122°23'0 0.0
2014-Sep-27 18:33N 47°40' W 122°23'0 0.0
2014-Sep-27 18:31N 47°40' W 122°23'0 0.0
2014-Sep-27 17:33N 47°40' W 122°23'0 0.0
2014-Sep-27 17:31N 47°40' W 122°23'0 0.0
2014-Sep-26 16:43N 47°40' W 122°23'0 0.0
2014-Sep-26 16:33N 47°40' W 122°23'0 0.0
2014-Sep-26 16:33N 47°40' W 122°23'0 0.0
2014-Sep-26 15:33N 47°40' W 122°23'0 0.0
2014-Sep-26 15:32N 47°40' W 122°23'0 0.0
2014-Sep-26 14:33N 47°40' W 122°23'0 0.0
2014-Sep-26 14:32N 47°40' W 122°23'0 0.0
2014-Sep-26 13:33N 47°40' W 122°23'0 0.0
2014-Sep-26 13:32N 47°40' W 122°23'0 0.0
2014-Sep-26 12:33N 47°40' W 122°23'0 0.2
2014-Sep-26 12:32N 47°40' W 122°23'0 0.0
2014-Sep-26 11:33N 47°40' W 122°23'0 0.0
2014-Sep-26 11:31N 47°40' W 122°23'0 0.0
2014-Sep-26 10:33N 47°40' W 122°23'0 0.0
2014-Sep-26 10:31N 47°40' W 122°23'0 0.0
2014-Sep-26 09:33N 47°40' W 122°23'0 0.2
2014-Sep-26 09:31N 47°40' W 122°23'0 0.0
2014-Sep-26 08:33N 47°40' W 122°23'0 0.0
2014-Sep-26 08:30N 47°40' W 122°23'0 0.0
2014-Sep-26 07:33N 47°40' W 122°23'0 0.1
2014-Sep-26 07:30N 47°40' W 122°23'0 0.0
2014-Sep-26 06:33N 47°40' W 122°23'0 0.1
2014-Sep-26 06:30N 47°40' W 122°23'0 0.0
2014-Sep-26 05:59N 47°40' W 122°23'0 0.0
2014-Sep-26 05:33N 47°40' W 122°23'0 0.0
2014-Sep-26 04:33N 47°40' W 122°23'0 0.0
2014-Sep-26 04:29N 47°40' W 122°23'0 0.0
2014-Sep-26 03:32N 47°40' W 122°23'0 0.0
2014-Sep-26 03:29N 47°40' W 122°23'0 0.0
2014-Sep-26 02:33N 47°40' W 122°23'0 0.1
2014-Sep-26 02:29N 47°40' W 122°23'0 0.0
2014-Sep-26 00:32N 47°40' W 122°23'0 0.0
2014-Sep-26 00:20N 47°40' W 122°23'0 0.0
2014-Sep-25 23:33N 47°40' W 122°23'0 0.1
2014-Sep-25 23:30N 47°40' W 122°23'0 0.0
2014-Sep-25 22:33N 47°40' W 122°23'0 0.0
2014-Sep-25 22:30N 47°40' W 122°23'0 0.0
2014-Sep-25 21:33N 47°40' W 122°23'0 0.1
2014-Sep-25 21:30N 47°40' W 122°23'0 0.0
2014-Sep-25 20:33N 47°40' W 122°23'0 0.0
2014-Sep-25 20:29N 47°40' W 122°23'0 0.0
2014-Sep-25 19:33N 47°40' W 122°23'0 0.0
2014-Sep-25 19:29N 47°40' W 122°23'0 0.0
2014-Sep-25 18:33N 47°40' W 122°23'0 0.0
2014-Sep-25 18:29N 47°40' W 122°23'0 0.0
2014-Sep-25 17:33N 47°40' W 122°23'0 0.0
2014-Sep-25 17:29N 47°40' W 122°23'0 0.0
2014-Sep-25 16:34N 47°40' W 122°23'0 0.0
2014-Sep-25 16:33N 47°40' W 122°23'0 0.0
2014-Sep-25 15:33N 47°40' W 122°23'0 0.0
2014-Sep-25 15:33N 47°40' W 122°23'0 0.0
2014-Sep-25 14:33N 47°40' W 122°23'0 0.0
2014-Sep-25 14:33N 47°40' W 122°23'0 0.0
2014-Sep-25 13:33N 47°40' W 122°23'0 0.0
2014-Sep-25 13:33N 47°40' W 122°23'0 0.0
2014-Sep-25 12:33N 47°40' W 122°23'0 0.0
2014-Sep-25 12:33N 47°40' W 122°23'0 0.0
2014-Sep-25 11:33N 47°40' W 122°23'0 0.0
2014-Sep-25 11:32N 47°40' W 122°23'0 0.0
2014-Sep-25 10:33N 47°40' W 122°23'0 0.0
2014-Sep-25 10:33N 47°40' W 122°23'0 0.0
2014-Sep-25 09:30N 47°40' W 122°23'0 0.0
2014-Sep-25 09:15N 47°40' W 122°23'0 0.0
2014-Sep-25 08:33N 47°40' W 122°23'0 0.2
2014-Sep-25 08:31N 47°40' W 122°23'0 0.0
2014-Sep-25 07:33N 47°40' W 122°23'0 0.1
2014-Sep-25 07:31N 47°40' W 122°23'0 0.0
2014-Sep-25 06:33N 47°40' W 122°23'0 0.0
2014-Sep-25 06:31N 47°40' W 122°23'0 0.0
2014-Sep-25 05:41N 47°40' W 122°23'0 0.0
2014-Sep-25 05:33N 47°40' W 122°23'0 0.0
2014-Sep-25 04:33N 47°40' W 122°23'0 0.0
2014-Sep-25 04:30N 47°40' W 122°23'0 0.0
2014-Sep-25 03:33N 47°40' W 122°23'0 0.0
2014-Sep-25 03:29N 47°40' W 122°23'0 0.0
2014-Sep-25 02:33N 47°40' W 122°23'0 0.0
2014-Sep-25 02:30N 47°40' W 122°23'0 0.0
2014-Sep-25 01:33N 47°40' W 122°23'0 0.1
2014-Sep-25 01:29N 47°40' W 122°23'2 2.7
2014-Sep-25 00:33N 47°42' W 122°25'0 0.6
2014-Sep-25 00:29N 47°42' W 122°25'4 4.2
2014-Sep-24 23:33N 47°38' W 122°25'1 5.0
2014-Sep-24 23:18N 47°37' W 122°24'1 0.7
2014-Sep-24 22:33N 47°38' W 122°23'0 0.0
2014-Sep-24 22:29N 47°38' W 122°23'0 0.0
2014-Sep-24 21:33N 47°38' W 122°23'0 0.0
2014-Sep-24 21:33N 47°38' W 122°23'0 0.0
2014-Sep-24 20:34N 47°38' W 122°23'0 0.0
2014-Sep-24 20:33N 47°38' W 122°23'0 0.0
2014-Sep-24 19:33N 47°38' W 122°23'0 0.0
2014-Sep-24 19:33N 47°38' W 122°23'0 0.0
2014-Sep-24 18:33N 47°38' W 122°23'0 0.0
2014-Sep-24 18:33N 47°38' W 122°23'0 0.0
2014-Sep-24 17:32N 47°38' W 122°23'0 0.6
2014-Sep-24 17:28N 47°38' W 122°23'0 0.0
2014-Sep-24 16:33N 47°38' W 122°23'0 0.0
2014-Sep-24 16:33N 47°38' W 122°23'2 1.5
2014-Sep-24 15:33N 47°38' W 122°25'010.9
2014-Sep-24 15:32N 47°38' W 122°25'2 2.2
2014-Sep-24 14:33N 47°40' W 122°24'0 4.9
2014-Sep-24 14:32N 47°40' W 122°24'0 0.3
2014-Sep-24 13:33N 47°40' W 122°23'0 0.3
2014-Sep-24 13:32N 47°40' W 122°23'0 0.0
2014-Sep-24 12:33N 47°40' W 122°23'0 0.0
2014-Sep-24 12:32N 47°40' W 122°23'0 0.0
2014-Sep-24 11:33N 47°40' W 122°23'0 0.0
2014-Sep-24 11:32N 47°40' W 122°23'0 0.0
2014-Sep-24 10:33N 47°40' W 122°23'0 0.0
2014-Sep-24 10:32N 47°40' W 122°23'0 0.0
2014-Sep-24 09:33N 47°40' W 122°23'0 0.0
2014-Sep-24 09:31N 47°40' W 122°23'0 0.0
2014-Sep-24 08:33N 47°40' W 122°23'0 0.0
2014-Sep-24 08:31N 47°40' W 122°23'0 0.0
2014-Sep-24 07:33N 47°40' W 122°23'0 0.0
2014-Sep-24 07:31N 47°40' W 122°23'0 0.0
2014-Sep-24 06:33N 47°40' W 122°23'0 0.2
2014-Sep-24 06:31N 47°40' W 122°23'0 0.0
2014-Sep-24 05:51N 47°40' W 122°23'0 0.0
2014-Sep-24 05:33N 47°40' W 122°23'0 0.0
2014-Sep-24 04:33N 47°40' W 122°23'0 0.0
2014-Sep-24 04:30N 47°40' W 122°23'0 0.0
2014-Sep-24 03:33N 47°40' W 122°23'0 0.1
2014-Sep-24 03:30N 47°40' W 122°23'0 0.0
2014-Sep-24 02:33N 47°40' W 122°23'0 0.1
2014-Sep-24 02:30N 47°40' W 122°23'0 0.0
2014-Sep-24 01:33N 47°40' W 122°23'0 0.0
2014-Sep-24 01:30N 47°40' W 122°23'0 0.0
2014-Sep-24 00:33N 47°40' W 122°23'0 0.0
2014-Sep-24 00:30N 47°40' W 122°23'0 0.0
2014-Sep-23 23:30N 47°40' W 122°23'0 0.0
2014-Sep-23 23:28N 47°40' W 122°23'0 0.0
2014-Sep-23 22:33N 47°40' W 122°23'0 0.0
2014-Sep-23 22:29N 47°40' W 122°23'0 0.0
2014-Sep-23 21:33N 47°40' W 122°23'0 0.0
2014-Sep-23 21:29N 47°40' W 122°23'0 0.0
2014-Sep-23 20:34N 47°40' W 122°23'0 0.0
2014-Sep-23 20:33N 47°40' W 122°23'0 0.0
2014-Sep-23 19:34N 47°40' W 122°23'0 0.0
2014-Sep-23 19:33N 47°40' W 122°23'0 0.0
2014-Sep-23 18:33N 47°40' W 122°23'0 0.0
2014-Sep-23 18:33N 47°40' W 122°23'0 0.0
2014-Sep-23 17:33N 47°40' W 122°23'0 0.0
2014-Sep-23 17:33N 47°40' W 122°23'0 0.0
2014-Sep-23 16:33N 47°40' W 122°23'0 0.0
2014-Sep-23 15:33N 47°40' W 122°23'0 0.0
2014-Sep-23 14:33N 47°40' W 122°23'0 0.0
2014-Sep-23 13:33N 47°40' W 122°23'0 0.0
2014-Sep-23 12:33N 47°40' W 122°23'0 0.0
2014-Sep-23 11:33N 47°40' W 122°23'0 0.0
2014-Sep-23 10:33N 47°40' W 122°23'0 0.0
2014-Sep-23 09:33N 47°40' W 122°23'0 0.0
2014-Sep-23 08:33N 47°40' W 122°23'0 0.0
2014-Sep-23 07:33N 47°40' W 122°23'0 0.0
2014-Sep-23 06:33N 47°40' W 122°23'0 0.1
2014-Sep-23 05:33N 47°40' W 122°23'0 0.1
2014-Sep-23 04:33N 47°40' W 122°23'0 0.0
2014-Sep-23 03:33N 47°40' W 122°23'0 0.0
2014-Sep-23 02:33N 47°40' W 122°23'  
Track history (hours):
 
Tides and Currents Weather Stations Pressure Air Temp Water Temp Dewpoint Dewpoint Depression Visibility Wind Speed Wind Dir Waves Ship Positions

Adriatic Sea

More information available from US FCC via Universal Licensing System and Coast Guard Vessel Documentation Center.

Last reported at 2014-Sep-29 11:19 UTC. Time now 2014-Sep-30 12:04 UTC.
Position N 46°15' W 123°27'.

Length 42 m.

Type: Tug. MMSI: 366910890.

Date/timePositionNaut miles runAvg speedWind from/ knotsBaromVisibWave heightAir tempDewpointWater temp
2014-Sep-29 11:19N 46°15' W 123°27'6 8.4
2014-Sep-29 10:34N 46°15' W 123°36'9 9.2
2014-Sep-29 09:33N 46°12' W 123°49'8 8.1
2014-Sep-29 08:33N 46°14' W 123°60'6 6.4
2014-Sep-29 07:33N 46°13' W 124°09'9 6.0
2014-Sep-29 06:03N 46°08' W 124°20'3 6.3
2014-Sep-29 05:33N 46°11' W 124°20'121 7.1
2014-Sep-28 12:32N 48°08' W 125°07'9 9.4
2014-Sep-28 11:32N 48°17' W 125°01'9 8.3
2014-Sep-28 10:27N 48°25' W 124°56'8 9.4
2014-Sep-28 09:33N 48°26' W 124°43'9 9.5
2014-Sep-28 08:33N 48°22' W 124°30'1110.4
2014-Sep-28 07:32N 48°18' W 124°16'1010.7
2014-Sep-28 06:33N 48°13' W 124°02'1110.9
2014-Sep-28 05:32N 48°12' W 123°45'1111.1
2014-Sep-28 04:31N 48°11' W 123°28'410.5
2014-Sep-28 04:05N 48°11' W 123°21'610.9
2014-Sep-28 03:32N 48°12' W 123°13'10 9.5
2014-Sep-28 02:32N 48°12' W 122°58'10 9.4
2014-Sep-28 01:29N 48°10' W 122°44'5 7.6
2014-Sep-28 00:47N 48°06' W 122°39'2 9.5
2014-Sep-28 00:34N 48°04' W 122°38'0 7.9
2014-Sep-28 00:32N 48°04' W 122°38'8 8.2
2014-Sep-27 23:34N 47°57' W 122°32'0 7.1
2014-Sep-27 23:32N 47°57' W 122°32'9 9.3
2014-Sep-27 22:33N 47°48' W 122°27'0 9.0
2014-Sep-27 22:32N 47°48' W 122°27'8 8.5
2014-Sep-27 21:33N 47°40' W 122°24'0 4.7
2014-Sep-27 21:32N 47°40' W 122°24'0 0.3
2014-Sep-27 20:34N 47°40' W 122°23'0 0.0
2014-Sep-27 20:31N 47°40' W 122°23'0 0.0
2014-Sep-27 19:34N 47°40' W 122°23'0 0.2
2014-Sep-27 19:31N 47°40' W 122°23'0 0.0
2014-Sep-27 18:33N 47°40' W 122°23'0 0.0
2014-Sep-27 18:31N 47°40' W 122°23'0 0.0
2014-Sep-27 17:33N 47°40' W 122°23'0 0.0
2014-Sep-27 17:31N 47°40' W 122°23'0 0.0
2014-Sep-26 16:43N 47°40' W 122°23'0 0.0
2014-Sep-26 16:33N 47°40' W 122°23'0 0.0
2014-Sep-26 16:33N 47°40' W 122°23'0 0.0
2014-Sep-26 15:33N 47°40' W 122°23'0 0.0
2014-Sep-26 15:32N 47°40' W 122°23'0 0.0
2014-Sep-26 14:33N 47°40' W 122°23'0 0.0
2014-Sep-26 14:32N 47°40' W 122°23'0 0.0
2014-Sep-26 13:33N 47°40' W 122°23'0 0.0
2014-Sep-26 13:32N 47°40' W 122°23'0 0.0
2014-Sep-26 12:33N 47°40' W 122°23'0 0.2
2014-Sep-26 12:32N 47°40' W 122°23'0 0.0
2014-Sep-26 11:33N 47°40' W 122°23'0 0.0
2014-Sep-26 11:31N 47°40' W 122°23'0 0.0
2014-Sep-26 10:33N 47°40' W 122°23'0 0.0
2014-Sep-26 10:31N 47°40' W 122°23'0 0.0
2014-Sep-26 09:33N 47°40' W 122°23'0 0.2
2014-Sep-26 09:31N 47°40' W 122°23'0 0.0
2014-Sep-26 08:33N 47°40' W 122°23'0 0.0
2014-Sep-26 08:30N 47°40' W 122°23'0 0.0
2014-Sep-26 07:33N 47°40' W 122°23'0 0.1
2014-Sep-26 07:30N 47°40' W 122°23'0 0.0
2014-Sep-26 06:33N 47°40' W 122°23'0 0.1
2014-Sep-26 06:30N 47°40' W 122°23'0 0.0
2014-Sep-26 05:59N 47°40' W 122°23'0 0.0
2014-Sep-26 05:33N 47°40' W 122°23'0 0.0
2014-Sep-26 04:33N 47°40' W 122°23'0 0.0
2014-Sep-26 04:29N 47°40' W 122°23'0 0.0
2014-Sep-26 03:32N 47°40' W 122°23'0 0.0
2014-Sep-26 03:29N 47°40' W 122°23'0 0.0
2014-Sep-26 02:33N 47°40' W 122°23'0 0.1
2014-Sep-26 02:29N 47°40' W 122°23'0 0.0
2014-Sep-26 00:32N 47°40' W 122°23'0 0.0
2014-Sep-26 00:20N 47°40' W 122°23'0 0.0
2014-Sep-25 23:33N 47°40' W 122°23'0 0.1
2014-Sep-25 23:30N 47°40' W 122°23'0 0.0
2014-Sep-25 22:33N 47°40' W 122°23'0 0.0
2014-Sep-25 22:30N 47°40' W 122°23'0 0.0
2014-Sep-25 21:33N 47°40' W 122°23'0 0.1
2014-Sep-25 21:30N 47°40' W 122°23'0 0.0
2014-Sep-25 20:33N 47°40' W 122°23'0 0.0
2014-Sep-25 20:29N 47°40' W 122°23'0 0.0
2014-Sep-25 19:33N 47°40' W 122°23'0 0.0
2014-Sep-25 19:29N 47°40' W 122°23'0 0.0
2014-Sep-25 18:33N 47°40' W 122°23'0 0.0
2014-Sep-25 18:29N 47°40' W 122°23'0 0.0
2014-Sep-25 17:33N 47°40' W 122°23'0 0.0
2014-Sep-25 17:29N 47°40' W 122°23'0 0.0
2014-Sep-25 16:34N 47°40' W 122°23'0 0.0
2014-Sep-25 16:33N 47°40' W 122°23'0 0.0
2014-Sep-25 15:33N 47°40' W 122°23'0 0.0
2014-Sep-25 15:33N 47°40' W 122°23'0 0.0
2014-Sep-25 14:33N 47°40' W 122°23'0 0.0
2014-Sep-25 14:33N 47°40' W 122°23'0 0.0
2014-Sep-25 13:33N 47°40' W 122°23'0 0.0
2014-Sep-25 13:33N 47°40' W 122°23'0 0.0
2014-Sep-25 12:33N 47°40' W 122°23'0 0.0
2014-Sep-25 12:33N 47°40' W 122°23'0 0.0
2014-Sep-25 11:33N 47°40' W 122°23'0 0.0
2014-Sep-25 11:32N 47°40' W 122°23'0 0.0
2014-Sep-25 10:33N 47°40' W 122°23'0 0.0
2014-Sep-25 10:33N 47°40' W 122°23'0 0.0
2014-Sep-25 09:30N 47°40' W 122°23'0 0.0
2014-Sep-25 09:15N 47°40' W 122°23'0 0.0
2014-Sep-25 08:33N 47°40' W 122°23'0 0.2
2014-Sep-25 08:31N 47°40' W 122°23'0 0.0
2014-Sep-25 07:33N 47°40' W 122°23'0 0.1
2014-Sep-25 07:31N 47°40' W 122°23'0 0.0
2014-Sep-25 06:33N 47°40' W 122°23'0 0.0
2014-Sep-25 06:31N 47°40' W 122°23'0 0.0
2014-Sep-25 05:41N 47°40' W 122°23'0 0.0
2014-Sep-25 05:33N 47°40' W 122°23'0 0.0
2014-Sep-25 04:33N 47°40' W 122°23'0 0.0
2014-Sep-25 04:30N 47°40' W 122°23'0 0.0
2014-Sep-25 03:33N 47°40' W 122°23'0 0.0
2014-Sep-25 03:29N 47°40' W 122°23'0 0.0
2014-Sep-25 02:33N 47°40' W 122°23'0 0.0
2014-Sep-25 02:30N 47°40' W 122°23'0 0.0
2014-Sep-25 01:33N 47°40' W 122°23'0 0.1
2014-Sep-25 01:29N 47°40' W 122°23'2 2.7
2014-Sep-25 00:33N 47°42' W 122°25'0 0.6
2014-Sep-25 00:29N 47°42' W 122°25'4 4.2
2014-Sep-24 23:33N 47°38' W 122°25'1 5.0
2014-Sep-24 23:18N 47°37' W 122°24'1 0.7
2014-Sep-24 22:33N 47°38' W 122°23'0 0.0
2014-Sep-24 22:29N 47°38' W 122°23'0 0.0
2014-Sep-24 21:33N 47°38' W 122°23'0 0.0
2014-Sep-24 21:33N 47°38' W 122°23'0 0.0
2014-Sep-24 20:34N 47°38' W 122°23'0 0.0
2014-Sep-24 20:33N 47°38' W 122°23'0 0.0
2014-Sep-24 19:33N 47°38' W 122°23'0 0.0
2014-Sep-24 19:33N 47°38' W 122°23'0 0.0
2014-Sep-24 18:33N 47°38' W 122°23'0 0.0
2014-Sep-24 18:33N 47°38' W 122°23'0 0.0
2014-Sep-24 17:32N 47°38' W 122°23'0 0.6
2014-Sep-24 17:28N 47°38' W 122°23'0 0.0
2014-Sep-24 16:33N 47°38' W 122°23'0 0.0
2014-Sep-24 16:33N 47°38' W 122°23'2 1.5
2014-Sep-24 15:33N 47°38' W 122°25'010.9
2014-Sep-24 15:32N 47°38' W 122°25'2 2.2
2014-Sep-24 14:33N 47°40' W 122°24'0 4.9
2014-Sep-24 14:32N 47°40' W 122°24'0 0.3
2014-Sep-24 13:33N 47°40' W 122°23'0 0.3
2014-Sep-24 13:32N 47°40' W 122°23'0 0.0
2014-Sep-24 12:33N 47°40' W 122°23'0 0.0
2014-Sep-24 12:32N 47°40' W 122°23'0 0.0
2014-Sep-24 11:33N 47°40' W 122°23'0 0.0
2014-Sep-24 11:32N 47°40' W 122°23'0 0.0
2014-Sep-24 10:33N 47°40' W 122°23'0 0.0
2014-Sep-24 10:32N 47°40' W 122°23'0 0.0
2014-Sep-24 09:33N 47°40' W 122°23'0 0.0
2014-Sep-24 09:31N 47°40' W 122°23'0 0.0
2014-Sep-24 08:33N 47°40' W 122°23'0 0.0
2014-Sep-24 08:31N 47°40' W 122°23'0 0.0
2014-Sep-24 07:33N 47°40' W 122°23'0 0.0
2014-Sep-24 07:31N 47°40' W 122°23'0 0.0
2014-Sep-24 06:33N 47°40' W 122°23'0 0.2
2014-Sep-24 06:31N 47°40' W 122°23'0 0.0
2014-Sep-24 05:51N 47°40' W 122°23'0 0.0
2014-Sep-24 05:33N 47°40' W 122°23'0 0.0
2014-Sep-24 04:33N 47°40' W 122°23'0 0.0
2014-Sep-24 04:30N 47°40' W 122°23'0 0.0
2014-Sep-24 03:33N 47°40' W 122°23'0 0.1
2014-Sep-24 03:30N 47°40' W 122°23'0 0.0
2014-Sep-24 02:33N 47°40' W 122°23'0 0.1
2014-Sep-24 02:30N 47°40' W 122°23'0 0.0
2014-Sep-24 01:33N 47°40' W 122°23'0 0.0
2014-Sep-24 01:30N 47°40' W 122°23'0 0.0
2014-Sep-24 00:33N 47°40' W 122°23'0 0.0
2014-Sep-24 00:30N 47°40' W 122°23'0 0.0
2014-Sep-23 23:30N 47°40' W 122°23'0 0.0
2014-Sep-23 23:28N 47°40' W 122°23'0 0.0
2014-Sep-23 22:33N 47°40' W 122°23'0 0.0
2014-Sep-23 22:29N 47°40' W 122°23'0 0.0
2014-Sep-23 21:33N 47°40' W 122°23'0 0.0
2014-Sep-23 21:29N 47°40' W 122°23'0 0.0
2014-Sep-23 20:34N 47°40' W 122°23'0 0.0
2014-Sep-23 20:33N 47°40' W 122°23'0 0.0
2014-Sep-23 19:34N 47°40' W 122°23'0 0.0
2014-Sep-23 19:33N 47°40' W 122°23'0 0.0
2014-Sep-23 18:33N 47°40' W 122°23'0 0.0
2014-Sep-23 18:33N 47°40' W 122°23'0 0.0
2014-Sep-23 17:33N 47°40' W 122°23'0 0.0
2014-Sep-23 17:33N 47°40' W 122°23'0 0.0
2014-Sep-23 16:33N 47°40' W 122°23'0 0.0
2014-Sep-23 15:33N 47°40' W 122°23'0 0.0
2014-Sep-23 14:33N 47°40' W 122°23'0 0.0
2014-Sep-23 13:33N 47°40' W 122°23'0 0.0
2014-Sep-23 12:33N 47°40' W 122°23'0 0.0
2014-Sep-23 11:33N 47°40' W 122°23'0 0.0
2014-Sep-23 10:33N 47°40' W 122°23'0 0.0
2014-Sep-23 09:33N 47°40' W 122°23'0 0.0
2014-Sep-23 08:33N 47°40' W 122°23'0 0.0
2014-Sep-23 07:33N 47°40' W 122°23'0 0.0
2014-Sep-23 06:33N 47°40' W 122°23'0 0.1
2014-Sep-23 05:33N 47°40' W 122°23'0 0.1
2014-Sep-23 04:33N 47°40' W 122°23'0 0.0
2014-Sep-23 03:33N 47°40' W 122°23'0 0.0
2014-Sep-23 02:33N 47°40' W 122°23'  

Dump ship's entire track history